Monday, December 17, 2018, 5:42 AM EST
Back to Local

KFIG, Clearfield-lawrence Airport

Location: Clearfield, PA, United States Lat: 41.05
Local Time: 5:42 AM EST (10:42 GMT) Lon: -78.417
Time Zone: US/Eastern Elev: 1515 ft

Show me the last for .
Show Decoded

2018-12-17 04:54 METAR KFIG 170954Z AUTO 26007KT 10SM OVC018 02/M01 A2986 RMK AO2 SLP124
                 T00171011 =
2018-12-17 04:28 METAR KFIG 170928Z AUTO 26008KT 10SM BKN016 02/M01 A2986 RMK AO2 T00171011 =
2018-12-17 03:54 METAR KFIG 170854Z AUTO 26010KT 10SM SCT016 02/M01 A2985 RMK AO2 SLP121
                 T00171011 58007 =
2018-12-17 02:54 METAR KFIG 170754Z AUTO 27007KT 10SM BKN017 03/01 A2987 RMK AO2 SLP126 T00280006
                 =
2018-12-17 02:29 METAR KFIG 170729Z AUTO 27009G19KT 10SM SCT019 03/01 A2987 RMK AO2 T00280006 =
2018-12-17 01:54 METAR KFIG 170654Z AUTO 25008KT 220V290 10SM OVC018 04/02 A2987 RMK AO2 SLP126
                 T00390022 =
2018-12-17 01:34 METAR KFIG 170634Z AUTO 26007KT 10SM SCT014 OVC021 04/02 A2987 RMK AO2 T00390022
                 =
2018-12-17 00:54 METAR KFIG 170554Z AUTO 25005KT 10SM OVC011 04/03 A2987 RMK AO2 SLP127 T00390028
                 10039 20028 58012 =
2018-12-17 00:01 METAR KFIG 170501Z AUTO 22004KT 10SM BKN012 OVC019 04/03 A2989 RMK AO2 T00390028
                 =
2018-12-16 23:54 METAR KFIG 170454Z AUTO 24005KT 10SM SCT014 OVC019 04/03 A2989 RMK AO2 SLP133
                 T00390028 400390017 =
2018-12-16 23:36 METAR KFIG 170436Z AUTO 27004KT 10SM SCT013 OVC019 04/03 A2990 RMK AO2 T00390028
                 =
2018-12-16 22:54 METAR KFIG 170354Z AUTO 00000KT 10SM BKN010 BKN014 OVC021 03/03 A2990 RMK AO2
                 CIG 008V012 SLP136 T00330033 =
2018-12-16 21:54 METAR KFIG 170254Z AUTO 24006KT 5SM BR OVC009 03/03 A2991 RMK AO2 SLP140
                 T00280028 58004 =
2018-12-16 21:45 METAR KFIG 170245Z AUTO 23005KT 5SM BR OVC010 03/03 A2991 RMK AO2 T00280028 =
2018-12-16 21:28 METAR KFIG 170228Z AUTO 22004KT 8SM OVC009 03/03 A2991 RMK AO2 CIG 007V012
                 T00280028 =
2018-12-16 20:54 METAR KFIG 170154Z AUTO 24003KT 9SM FEW004 BKN012 OVC021 03/02 A2992 RMK AO2
                 SLP144 T00280022 =
2018-12-16 20:41 METAR KFIG 170141Z AUTO 24003KT 3SM BR SCT002 BKN011 OVC021 03/02 A2992 RMK AO2
                 T00280022 =
2018-12-16 20:37 METAR KFIG 170137Z AUTO 24003KT 1SM BR SCT002 BKN011 OVC026 03/02 A2992 RMK AO2
                 T00280022 =
2018-12-16 20:27 METAR KFIG 170127Z AUTO 23003KT 3/4SM BR BKN001 BKN011 OVC025 03/02 A2993 RMK
                 AO2 T00280022 =
2018-12-16 20:23 METAR KFIG 170123Z AUTO 23004KT 2SM BR BKN001 BKN011 OVC027 03/02 A2992 RMK AO2
                 T00280022 =
2018-12-16 19:54 METAR KFIG 170054Z AUTO 22003KT 7SM FEW001 BKN012 OVC027 03/02 A2992 RMK AO2
                 SLP145 T00280022 =
2018-12-16 19:36 METAR KFIG 170036Z AUTO 23003KT 5SM BR BKN014 BKN020 OVC031 03/02 A2992 RMK AO2
                 T00280022 =
2018-12-16 18:54 METAR KFIG 162354Z AUTO 27003KT 10SM FEW014 FEW019 OVC027 03/02 A2992 RMK AO2
                 SLP144 60001 T00280022 10028 20022 51005 =
2018-12-16 17:54 METAR KFIG 162254Z AUTO 29004KT 10SM OVC017 03/02 A2992 RMK AO2 SLP143 T00280017
                 =
2018-12-16 16:54 METAR KFIG 162154Z AUTO 00000KT 10SM BKN022 OVC028 03/02 A2991 RMK AO2
                 RAB2056E26UPB24E25 SLP142 P0001 T00280017 =
2018-12-16 16:46 METAR KFIG 162146Z AUTO 29003KT 10SM BKN026 OVC031 03/02 A2991 RMK AO2
                 RAB2056E26UPB24E25 P0001 T00280017 =
2018-12-16 16:26 METAR KFIG 162126Z AUTO 00000KT 10SM OVC030 03/02 A2991 RMK AO2
                 RAB2056E26UPB24E25 P0001 T00280017 =
2018-12-16 15:54 METAR KFIG 162054Z AUTO 00000KT 10SM FEW011 BKN019 OVC024 03/02 A2991 RMK AO2
                 SLP139 T00280022 53007 =
2018-12-16 15:45 METAR KFIG 162045Z AUTO 00000KT 10SM SCT011 OVC017 03/02 A2990 RMK AO2 T00280022
                 =
2018-12-16 14:54 METAR KFIG 161954Z AUTO 04003KT 8SM BKN005 BKN010 OVC014 03/02 A2989 RMK AO2
                 SLP135 T00280022 =
2018-12-16 14:51 METAR KFIG 161951Z AUTO 00000KT 9SM BKN007 OVC014 03/02 A2989 RMK AO2 CIG
                 004V010 =
2018-12-16 14:37 METAR KFIG 161937Z AUTO 05003KT 10SM FEW007 OVC014 03/02 A2989 RMK AO2 T00280022
                 =
2018-12-16 14:35 METAR KFIG 161935Z AUTO 05003KT 10SM SCT011 OVC016 03/02 A2989 RMK AO2 T00280022
                 =
2018-12-16 14:30 METAR KFIG 161930Z AUTO 07003KT 10SM OVC013 03/02 A2989 RMK AO2 T00280022 =
2018-12-16 14:20 METAR KFIG 161920Z AUTO 08003KT 10SM OVC015 03/02 A2989 RMK AO2 T00280022 =
2018-12-16 13:54 METAR KFIG 161854Z AUTO 07004KT 10SM OVC012 03/02 A2989 RMK AO2 SLP132 T00280022
                 =
2018-12-16 13:39 METAR KFIG 161839Z AUTO 06005KT 9SM SCT005 OVC010 03/02 A2989 RMK AO2 T00280022
                 =
2018-12-16 13:29 METAR KFIG 161829Z AUTO 05005KT 4SM BR BKN005 OVC010 03/02 A2989 RMK AO2
                 T00280022 =
2018-12-16 13:16 METAR KFIG 161816Z AUTO 04006KT 2 1/2SM BR BKN006 BKN010 OVC016 03/03 A2989 RMK
                 AO2 T00280028 =
2018-12-16 13:07 METAR KFIG 161807Z AUTO 05006KT 1 3/4SM BR BKN006 OVC015 03/02 A2989 RMK AO2
                 T00280022 =
2018-12-16 13:00 METAR KFIG 161800Z AUTO 07006KT 2 1/2SM BR SCT005 OVC015 03/03 A2989 RMK AO2
                 T00280028 =
2018-12-16 12:54 METAR KFIG 161754Z AUTO 07006KT 3SM BR SCT005 OVC013 03/03 A2989 RMK AO2 SLP135
                 60000 I6000 T00280028 10033 20022 57020 =
2018-12-16 12:24 METAR KFIG 161724Z AUTO 06005KT 4SM BR BKN005 OVC011 03/03 A2991 RMK AO2
                 T00330028 =
2018-12-16 12:16 METAR KFIG 161716Z AUTO 05006KT 2 1/2SM BR BKN005 OVC011 03/02 A2991 RMK AO2
                 T00280022 =
2018-12-16 12:03 METAR KFIG 161703Z AUTO 05007KT 1 3/4SM BR BKN005 OVC012 03/02 A2991 RMK AO2 CIG
                 003V008 T00280022 =
2018-12-16 11:54 METAR KFIG 161654Z AUTO 07005KT 2SM BR BKN005 OVC012 03/02 A2992 RMK AO2 SLP141
                 I1000 T00280022 =
2018-12-16 11:33 METAR KFIG 161633Z AUTO 07006KT 2SM BR BKN005 OVC012 03/02 A2992 RMK AO2 CIG
                 003V009 I1000 T00280022 =
2018-12-16 11:26 METAR KFIG 161626Z AUTO 07007KT 1 3/4SM BR OVC005 03/02 A2992 RMK AO2 CIG
                 003V009 I1000 T00280022 =
2018-12-16 11:16 METAR KFIG 161616Z AUTO 07005KT 2SM BR OVC005 03/02 A2993 RMK AO2 CIG 003V007
                 I1000 T00280022 =
2018-12-16 10:54 METAR KFIG 161554Z AUTO 06006KT 4SM BR OVC006 02/02 A2993 RMK AO2 CIG 004V010
                 SLP148 T00220022 =
2018-12-16 09:54 METAR KFIG 161454Z AUTO 06008KT 8SM OVC005 02/02 A2996 RMK AO2 CIG 003V009
                 SLP155 60000 I3000 T00220022 50000 =
2018-12-16 09:49 METAR KFIG 161449Z AUTO 06008KT 7SM OVC005 02/02 A2996 RMK AO2 CIG 003V009 =
2018-12-16 09:32 METAR KFIG 161432Z AUTO 07008KT 5SM BR OVC004 02/02 A2996 RMK AO2 CIG 003V007
                 T00220017 =
2018-12-16 09:10 METAR KFIG 161410Z AUTO 06008KT 3SM BR OVC005 02/02 A2996 RMK AO2 CIG 002V007
                 T00220017 =
2018-12-16 08:54 METAR KFIG 161354Z AUTO 05006KT 2 1/2SM BR BKN005 OVC010 02/02 A2996 RMK AO2
                 RAE08 CIG 003V007 SLP155 P0000 I1000 T00220017 =
2018-12-16 08:19 METAR KFIG 161319Z AUTO 05005KT 2 1/2SM BR OVC009 02/02 A2996 RMK AO2 RAE08 CIG
                 005V012 P0000 T00220017 =
2018-12-16 08:04 METAR KFIG 161304Z AUTO 03005KT 6SM -RA BR BKN010 OVC028 02/02 A2996 RMK AO2 CIG
                 008V013 P0000 T00220017 =
2018-12-16 07:54 METAR KFIG 161254Z AUTO 03006KT 9SM -RA BKN009 BKN017 OVC030 02/02 A2996 RMK AO2
                 SLP155 P0000 T00220017 =
2018-12-16 07:29 METAR KFIG 161229Z AUTO 04006KT 8SM -RA FEW005 BKN010 OVC030 02/02 A2995 RMK AO2
                 P0000 T00220017 =
2018-12-16 06:54 METAR KFIG 161154Z AUTO 04005KT 6SM -RA BR BKN005 OVC009 02/02 A2996 RMK AO2
                 SLP156 P0005 60049 70079 T00220017 10028 20017 56008 =
2018-12-16 06:41 METAR KFIG 161141Z AUTO 04005KT 3SM -RA BR OVC005 02/02 A2996 RMK AO2 P0005
                 T00220017 =
2018-12-16 06:34 METAR KFIG 161134Z AUTO 05005KT 2 1/2SM -RA BR BKN005 OVC008 02/02 A2996 RMK AO2
                 P0005 T00220017 =
2018-12-16 06:01 METAR KFIG 161101Z AUTO 03004KT 2 1/2SM -RA BR OVC004 02/02 A2996 RMK AO2 P0001
                 T00170017 =
2018-12-16 05:54 METAR KFIG 161054Z AUTO 04004KT 3SM RA BR OVC004 02/02 A2996 RMK AO2 SLP157
                 P0008 T00170017 =

Support USWX by starting your Amazon purchase here.